createdAt,value
2018-09-22T00:01:04.808Z,5.43
2018-09-22T00:03:31.966Z,7.00
2018-09-22T00:05:59.154Z,3.63
2018-09-22T00:08:26.276Z,5.40
2018-09-22T00:10:53.471Z,4.60
2018-09-22T00:13:20.637Z,5.50
2018-09-22T00:15:47.838Z,3.77
2018-09-22T00:18:15.072Z,5.27
2018-09-22T00:20:43.067Z,6.17
2018-09-22T00:23:10.248Z,4.43
2018-09-22T00:25:37.463Z,5.10
2018-09-22T00:28:04.745Z,4.00
2018-09-22T00:30:31.945Z,7.37
2018-09-22T00:32:59.392Z,5.20
2018-09-22T00:35:26.616Z,4.00
2018-09-22T00:37:53.777Z,4.83
2018-09-22T00:40:20.920Z,6.40
2018-09-22T00:42:48.105Z,5.93
2018-09-22T00:45:15.284Z,6.60
2018-09-22T00:47:42.455Z,3.53
2018-09-22T00:50:09.649Z,7.00
2018-09-22T00:52:36.788Z,5.77
2018-09-22T00:55:04.536Z,4.03
2018-09-22T00:57:31.700Z,5.03
2018-09-22T00:59:58.860Z,4.63
2018-09-22T01:02:26.076Z,4.40
2018-09-22T01:04:53.229Z,5.37
2018-09-22T01:07:20.385Z,11.90
2018-09-22T01:09:47.592Z,4.60
2018-09-22T01:12:14.773Z,10.47
2018-09-22T01:14:41.959Z,8.67
2018-09-22T01:17:09.177Z,4.33
2018-09-22T01:19:36.396Z,4.87
2018-09-22T01:22:03.585Z,3.97
2018-09-22T01:24:30.756Z,5.53
2018-09-22T01:26:57.924Z,6.33
2018-09-22T01:29:25.118Z,6.70
2018-09-22T01:31:52.298Z,5.57
2018-09-22T01:34:19.484Z,6.33
2018-09-22T01:36:46.715Z,4.53
2018-09-22T01:39:13.936Z,5.73
2018-09-22T01:41:41.589Z,6.23
2018-09-22T01:44:08.776Z,8.43
2018-09-22T01:46:35.960Z,4.77
2018-09-22T01:49:03.084Z,13.67
2018-09-22T01:51:30.644Z,7.60
2018-09-22T01:53:57.855Z,5.97
2018-09-22T01:56:25.065Z,5.07
2018-09-22T01:58:52.177Z,7.00
2018-09-22T02:01:19.309Z,4.70
2018-09-22T02:03:46.445Z,4.43
2018-09-22T02:06:13.629Z,5.07
2018-09-22T02:08:40.776Z,5.80
2018-09-22T02:11:07.972Z,4.63
2018-09-22T02:13:35.210Z,3.07
2018-09-22T02:16:02.396Z,5.20
2018-09-22T02:18:29.545Z,5.40
2018-09-22T02:20:56.720Z,3.93
2018-09-22T02:23:23.856Z,7.43
2018-09-22T02:25:51.020Z,4.87
2018-09-22T02:28:18.214Z,5.27
2018-09-22T02:30:45.399Z,4.43
2018-09-22T02:33:12.653Z,4.77
2018-09-22T02:35:39.863Z,5.70
2018-09-22T02:38:07.040Z,3.97
2018-09-22T02:40:34.217Z,4.00
2018-09-22T02:43:01.405Z,6.63
2018-09-22T02:45:28.548Z,2.87
2018-09-22T02:47:55.713Z,5.67
2018-09-22T02:50:22.868Z,9.93
2018-09-22T02:52:50.146Z,5.20
2018-09-22T02:55:17.329Z,4.43
2018-09-22T02:57:44.467Z,6.40
2018-09-22T03:00:11.651Z,3.43
2018-09-22T03:02:38.800Z,5.13
2018-09-22T03:05:05.994Z,3.67
2018-09-22T03:07:33.204Z,4.43
2018-09-22T03:10:00.384Z,3.37
2018-09-22T03:12:27.567Z,2.40
2018-09-22T03:14:54.756Z,3.73
2018-09-22T03:17:21.950Z,5.60
2018-09-22T03:19:49.116Z,8.90
2018-09-22T03:22:16.224Z,3.13
2018-09-22T03:24:43.475Z,7.53
2018-09-22T03:27:10.683Z,5.00
2018-09-22T03:29:37.861Z,7.13
2018-09-22T03:32:05.119Z,5.57
2018-09-22T03:34:32.392Z,2.10
2018-09-22T03:36:59.528Z,4.80
2018-09-22T03:39:26.729Z,4.03
2018-09-22T03:41:53.841Z,2.53
2018-09-22T03:44:20.960Z,3.70
2018-09-22T03:46:48.131Z,3.40
2018-09-22T03:49:15.301Z,3.83
2018-09-22T03:51:42.493Z,10.60
2018-09-22T03:54:09.657Z,4.67
2018-09-22T03:56:36.804Z,7.60
2018-09-22T03:59:03.995Z,6.90
2018-09-22T04:01:31.172Z,4.70
2018-09-22T04:03:58.316Z,3.80
2018-09-22T04:06:25.495Z,2.60
2018-09-22T04:08:52.611Z,5.37
2018-09-22T04:11:19.732Z,6.93
2018-09-22T04:13:46.920Z,7.90
2018-09-22T04:16:14.034Z,8.67
2018-09-22T04:18:41.214Z,5.13
2018-09-22T04:21:08.460Z,6.53
2018-09-22T04:23:35.647Z,3.83
2018-09-22T04:26:02.861Z,4.83
2018-09-22T04:28:30.000Z,4.90
2018-09-22T04:30:57.166Z,3.67
2018-09-22T04:33:31.235Z,3.60
2018-09-22T04:35:58.324Z,2.47
2018-09-22T04:38:25.474Z,6.50
2018-09-22T04:40:52.630Z,6.37
2018-09-22T04:43:19.786Z,10.67
2018-09-22T04:45:46.956Z,3.03
2018-09-22T04:48:14.103Z,10.07
2018-09-22T04:50:41.248Z,3.73
2018-09-22T04:53:08.417Z,3.90
2018-09-22T04:55:35.576Z,6.10
2018-09-22T04:58:02.766Z,3.90
2018-09-22T05:00:29.904Z,2.73
2018-09-22T05:02:57.064Z,5.03
2018-09-22T05:05:24.212Z,5.30
2018-09-22T05:07:51.363Z,12.63
2018-09-22T05:10:18.568Z,10.17
2018-09-22T05:12:45.736Z,4.87
2018-09-22T05:15:12.943Z,4.60
2018-09-22T05:17:40.169Z,3.00
2018-09-22T05:20:07.333Z,6.67
2018-09-22T05:22:34.446Z,4.03
2018-09-22T05:25:01.746Z,4.57
2018-09-22T05:27:28.929Z,5.50
2018-09-22T05:29:56.107Z,4.20
2018-09-22T05:32:23.273Z,7.33
2018-09-22T05:34:50.476Z,17.63
2018-09-22T05:37:17.634Z,28.70
2018-09-22T05:39:44.807Z,81.97
2018-09-22T05:42:12.044Z,80.30
2018-09-22T05:44:39.236Z,242.00
2018-09-22T05:47:06.440Z,389.03
2018-09-22T05:49:33.552Z,334.73
2018-09-22T05:52:00.692Z,37.03
2018-09-22T05:54:27.973Z,71.43
2018-09-22T05:56:55.147Z,74.00
2018-09-22T05:59:22.269Z,43.47
2018-09-22T06:01:49.467Z,22.90
2018-09-22T06:04:16.631Z,7.63
2018-09-22T06:06:43.755Z,6.67
2018-09-22T06:09:10.906Z,9.83
2018-09-22T06:11:38.115Z,3.50
2018-09-22T06:14:05.357Z,5.50
2018-09-22T06:16:32.588Z,4.70
2018-09-22T06:18:59.763Z,4.50
2018-09-22T06:21:26.952Z,7.40
2018-09-22T06:23:54.195Z,134.27
2018-09-22T06:26:21.348Z,17.03
2018-09-22T06:28:48.597Z,11.30
2018-09-22T06:31:15.751Z,2.57
2018-09-22T06:33:42.924Z,4.30
2018-09-22T06:36:10.091Z,7.20
2018-09-22T06:38:37.201Z,5.30
2018-09-22T06:41:04.409Z,7.43
2018-09-22T06:43:31.599Z,2.03
2018-09-22T06:48:32.893Z,9.90
2018-09-22T06:51:00.156Z,3.40
2018-09-22T06:53:27.416Z,4.47
2018-09-22T06:55:54.611Z,6.40
2018-09-22T06:58:21.796Z,8.03
2018-09-22T07:00:48.970Z,3.40
2018-09-22T07:03:16.170Z,9.93
2018-09-22T07:05:43.324Z,14.80
2018-09-22T07:08:10.472Z,7.53
2018-09-22T07:10:37.628Z,5.47
2018-09-22T07:13:04.820Z,4.80
2018-09-22T07:15:31.989Z,2.60
2018-09-22T07:17:59.105Z,11.63
2018-09-22T07:20:26.285Z,2.60
2018-09-22T07:22:59.208Z,5.43
2018-09-22T07:25:26.392Z,4.83
2018-09-22T07:27:53.541Z,2.60
2018-09-22T07:30:20.664Z,5.30
2018-09-22T07:32:47.865Z,3.17
2018-09-22T07:35:15.031Z,10.67
2018-09-22T07:37:42.207Z,3.80
2018-09-22T07:40:09.356Z,3.80
2018-09-22T07:42:36.590Z,7.63
2018-09-22T07:45:03.896Z,4.83
2018-09-22T07:47:31.059Z,11.53
2018-09-22T07:49:58.211Z,6.40
2018-09-22T07:52:25.356Z,4.53
2018-09-22T07:54:52.527Z,8.80
2018-09-22T07:57:19.741Z,6.60
2018-09-22T07:59:46.910Z,8.03
2018-09-22T08:02:14.044Z,6.27
2018-09-22T08:04:41.212Z,12.63
2018-09-22T08:07:13.813Z,3.67
2018-09-22T08:09:40.985Z,4.60
2018-09-22T08:12:08.234Z,8.80
2018-09-22T08:14:35.433Z,5.80
2018-09-22T08:17:02.598Z,5.43
2018-09-22T08:19:29.796Z,8.80
2018-09-22T08:21:57.000Z,6.80
2018-09-22T08:24:24.164Z,7.00
2018-09-22T08:26:51.332Z,5.43
2018-09-22T08:29:18.641Z,3.80
2018-09-22T08:31:45.985Z,9.13
2018-09-22T08:34:13.264Z,4.57
2018-09-22T08:36:40.692Z,4.27
2018-09-22T08:39:09.310Z,3.00
2018-09-22T08:41:36.517Z,4.13
2018-09-22T08:44:03.681Z,3.00
2018-09-22T08:46:30.940Z,11.00
2018-09-22T08:48:58.151Z,3.20
2018-09-22T08:51:25.333Z,2.60
2018-09-22T08:53:52.565Z,10.23
2018-09-22T08:56:19.794Z,4.40
2018-09-22T08:58:47.053Z,4.30
2018-09-22T09:01:14.314Z,7.47
2018-09-22T09:03:41.967Z,4.00
2018-09-22T09:06:09.165Z,4.30
2018-09-22T09:08:36.353Z,3.53
2018-09-22T09:11:03.577Z,6.03
2018-09-22T09:13:30.848Z,6.93
2018-09-22T09:15:58.003Z,7.73
2018-09-22T09:18:25.185Z,9.40
2018-09-22T09:20:52.419Z,3.30
2018-09-22T09:23:19.608Z,10.00
2018-09-22T09:25:46.750Z,8.33
2018-09-22T09:28:13.995Z,6.20
2018-09-22T09:30:41.213Z,3.73
2018-09-22T09:33:08.410Z,9.80
2018-09-22T09:35:35.724Z,9.33
2018-09-22T09:38:02.925Z,4.57
2018-09-22T09:40:30.063Z,4.17
2018-09-22T09:42:57.264Z,7.90
2018-09-22T09:45:24.463Z,3.50
2018-09-22T09:47:51.671Z,6.67
2018-09-22T09:50:18.865Z,7.50
2018-09-22T09:52:46.123Z,3.27
2018-09-22T09:55:13.414Z,6.07
2018-09-22T09:57:40.674Z,5.57
2018-09-22T10:00:08.014Z,7.30
2018-09-22T10:02:35.212Z,5.83
2018-09-22T10:05:02.790Z,6.13
2018-09-22T10:07:30.016Z,4.83
2018-09-22T10:09:57.230Z,4.00
2018-09-22T10:12:24.453Z,7.37
2018-09-22T10:14:51.693Z,7.63
2018-09-22T10:17:19.034Z,4.30
2018-09-22T10:19:46.259Z,2.57
2018-09-22T10:22:13.552Z,3.67
2018-09-22T10:24:40.831Z,5.80
2018-09-22T10:27:08.097Z,4.33
2018-09-22T10:29:35.408Z,6.07
2018-09-22T10:32:02.643Z,6.33
2018-09-22T10:34:29.851Z,3.07
2018-09-22T10:36:57.012Z,2.50
2018-09-22T10:39:24.184Z,4.40
2018-09-22T10:41:51.335Z,8.90
2018-09-22T10:44:18.541Z,5.60
2018-09-22T10:46:45.756Z,3.43
2018-09-22T10:49:13.081Z,4.67
2018-09-22T10:51:40.237Z,6.33
2018-09-22T10:54:07.384Z,3.23
2018-09-22T10:56:34.570Z,5.27
2018-09-22T10:59:01.739Z,6.90
2018-09-22T11:01:28.912Z,7.60
2018-09-22T11:03:56.148Z,5.87
2018-09-22T11:06:23.372Z,5.50
2018-09-22T11:08:50.684Z,2.47
2018-09-22T11:11:17.922Z,2.43
2018-09-22T11:13:45.195Z,6.67
2018-09-22T11:16:12.470Z,4.73
2018-09-22T11:18:39.720Z,6.33
2018-09-22T11:21:06.928Z,3.10
2018-09-22T11:23:34.137Z,6.53
2018-09-22T11:26:08.174Z,5.37
2018-09-22T11:28:35.400Z,9.17
2018-09-22T11:31:02.587Z,4.53
2018-09-22T11:33:29.865Z,4.47
2018-09-22T11:35:57.097Z,5.10
2018-09-22T11:38:24.435Z,5.10
2018-09-22T11:40:51.572Z,5.10
2018-09-22T11:43:18.779Z,8.33
2018-09-22T11:45:45.968Z,5.07
2018-09-22T11:48:13.233Z,5.47
2018-09-22T11:50:40.499Z,5.87
2018-09-22T11:53:07.774Z,4.43
2018-09-22T11:55:35.100Z,6.50
2018-09-22T11:58:02.449Z,3.07
2018-09-22T12:00:29.732Z,2.93
2018-09-22T12:02:57.005Z,4.80
2018-09-22T12:05:24.295Z,4.23
2018-09-22T12:07:51.540Z,10.87
2018-09-22T12:10:18.780Z,11.83
2018-09-22T12:12:46.035Z,4.73
2018-09-22T12:15:13.292Z,7.33
2018-09-22T12:17:40.544Z,5.83
2018-09-22T12:20:07.882Z,4.43
2018-09-22T12:22:35.230Z,2.87
2018-09-22T12:25:02.689Z,3.37
2018-09-22T12:27:29.964Z,6.33
2018-09-22T12:29:57.220Z,7.63
2018-09-22T12:32:25.460Z,3.40
2018-09-22T12:34:52.696Z,2.23
2018-09-22T12:37:19.918Z,3.57
2018-09-22T12:39:47.143Z,7.73
2018-09-22T12:42:14.344Z,2.70
2018-09-22T12:44:41.538Z,6.33
2018-09-22T12:47:08.702Z,4.53
2018-09-22T12:49:35.948Z,5.63
2018-09-22T12:52:03.170Z,10.30
2018-09-22T12:54:30.398Z,4.60
2018-09-22T12:56:57.551Z,3.53
2018-09-22T12:59:25.012Z,4.40
2018-09-22T13:01:52.213Z,7.20
2018-09-22T13:04:19.432Z,7.30
2018-09-22T13:06:46.643Z,7.27
2018-09-22T13:09:13.892Z,4.83
2018-09-22T13:11:41.129Z,4.00
2018-09-22T13:14:08.420Z,7.33
2018-09-22T13:16:35.656Z,4.37
2018-09-22T13:19:02.835Z,6.77
2018-09-22T13:21:30.123Z,3.03
2018-09-22T13:23:57.372Z,5.43
2018-09-22T13:26:24.569Z,6.20
2018-09-22T13:28:51.817Z,4.30
2018-09-22T13:31:19.005Z,5.63
2018-09-22T13:33:46.212Z,6.50
2018-09-22T13:36:13.368Z,11.63
2018-09-22T13:38:40.688Z,5.90
2018-09-22T13:41:07.822Z,9.87
2018-09-22T13:43:34.991Z,3.33
2018-09-22T13:46:02.177Z,4.40
2018-09-22T13:48:29.436Z,4.33
2018-09-22T13:50:56.699Z,8.97
2018-09-22T13:53:23.841Z,7.47
2018-09-22T13:55:51.045Z,6.10
2018-09-22T13:58:18.277Z,8.03
2018-09-22T14:00:45.422Z,7.80
2018-09-22T14:03:12.621Z,14.57
2018-09-22T14:05:39.922Z,9.27
2018-09-22T14:08:14.001Z,6.20
2018-09-22T14:10:41.236Z,5.87
2018-09-22T14:13:08.496Z,6.10
2018-09-22T14:15:35.681Z,5.07
2018-09-22T14:18:02.898Z,3.80
2018-09-22T14:20:30.151Z,7.43
2018-09-22T14:22:57.336Z,4.73
2018-09-22T14:25:24.517Z,5.80
2018-09-22T14:27:51.972Z,12.03
2018-09-22T14:30:19.180Z,9.40
2018-09-22T14:32:46.432Z,7.23
2018-09-22T14:35:13.680Z,6.93
2018-09-22T14:37:40.931Z,7.43
2018-09-22T14:40:08.279Z,6.50
2018-09-22T14:42:35.477Z,4.23
2018-09-22T14:45:02.681Z,8.90
2018-09-22T14:47:29.884Z,5.30
2018-09-22T14:49:57.087Z,8.17
2018-09-22T14:52:24.248Z,4.87
2018-09-22T14:54:51.455Z,3.33
2018-09-22T14:57:18.647Z,6.23
2018-09-22T14:59:45.896Z,6.10
2018-09-22T15:02:13.130Z,3.80
2018-09-22T15:04:40.381Z,4.93
2018-09-22T15:07:07.577Z,3.37
2018-09-22T15:09:34.741Z,6.33
2018-09-22T15:12:01.935Z,8.30
2018-09-22T15:14:29.156Z,8.63
2018-09-22T15:16:56.728Z,4.93
2018-09-22T15:19:23.953Z,9.37
2018-09-22T15:21:51.177Z,7.37
2018-09-22T15:24:18.377Z,8.13
2018-09-22T15:26:45.638Z,9.27
2018-09-22T15:29:12.885Z,4.93
2018-09-22T15:31:40.089Z,7.60
2018-09-22T15:34:07.280Z,4.77
2018-09-22T15:36:34.464Z,13.03
2018-09-22T15:39:01.827Z,9.70
2018-09-22T15:41:29.011Z,5.20
2018-09-22T15:43:56.203Z,4.67
2018-09-22T15:46:23.404Z,4.20
2018-09-22T15:48:50.583Z,5.20
2018-09-22T15:51:17.931Z,7.03
2018-09-22T15:53:45.153Z,6.43
2018-09-22T15:56:12.389Z,6.73
2018-09-22T15:58:39.686Z,51.07
2018-09-22T16:01:06.895Z,18.97
2018-09-22T16:03:34.149Z,16.50
2018-09-22T16:06:01.405Z,8.60
2018-09-22T16:08:28.686Z,7.47
2018-09-22T16:10:55.830Z,6.13
2018-09-22T16:13:23.145Z,22.00
2018-09-22T16:15:50.363Z,8.63
2018-09-22T16:18:17.658Z,4.60
2018-09-22T16:20:44.910Z,41.87
2018-09-22T16:23:12.130Z,47.53
2018-09-22T16:25:39.408Z,75.57
2018-09-22T16:28:06.671Z,14.73
2018-09-22T16:30:34.004Z,13.50
2018-09-22T16:33:01.368Z,12.77
2018-09-22T16:35:35.430Z,13.20
2018-09-22T16:38:02.742Z,27.73
2018-09-22T16:40:30.016Z,7.37
2018-09-22T16:42:57.343Z,9.47
2018-09-22T16:45:24.609Z,10.53
2018-09-22T16:47:51.886Z,123.67
2018-09-22T16:50:19.173Z,17.63
2018-09-22T16:52:46.403Z,49.67
2018-09-22T16:55:13.701Z,53.90
2018-09-22T16:57:40.959Z,14.33
2018-09-22T17:00:08.300Z,6.67
2018-09-22T17:02:35.640Z,5.33
2018-09-22T17:05:04.744Z,7.30
2018-09-22T17:07:32.077Z,6.57
2018-09-22T17:09:59.345Z,4.50
2018-09-22T17:12:26.602Z,7.10
2018-09-22T17:14:53.955Z,6.33
2018-09-22T17:17:21.302Z,4.40
2018-09-22T17:19:48.584Z,5.90
2018-09-22T17:22:15.906Z,3.00
2018-09-22T17:24:43.216Z,5.47
2018-09-22T17:27:10.521Z,5.53
2018-09-22T17:29:37.820Z,8.40
2018-09-22T17:32:05.152Z,6.20
2018-09-22T17:34:32.509Z,6.93
2018-09-22T17:36:59.831Z,9.90
2018-09-22T17:39:27.138Z,105.70
2018-09-22T17:41:54.500Z,32.10
2018-09-22T17:44:21.843Z,12.67
2018-09-22T17:46:49.122Z,3.60
2018-09-22T17:49:16.371Z,8.37
2018-09-22T17:51:43.629Z,11.40
2018-09-22T17:54:10.944Z,7.23
2018-09-22T17:56:38.329Z,5.10
2018-09-22T17:59:05.911Z,7.73
2018-09-22T18:01:33.253Z,16.33
2018-09-22T18:04:00.559Z,13.07
2018-09-22T18:06:27.806Z,21.33
2018-09-22T18:08:55.067Z,15.67
2018-09-22T18:11:22.317Z,30.93
2018-09-22T18:13:49.588Z,25.00
2018-09-22T18:16:16.861Z,8.20
2018-09-22T18:18:44.312Z,9.03
2018-09-22T18:21:11.600Z,4.73
2018-09-22T18:23:38.875Z,4.80
2018-09-22T18:26:06.119Z,8.53
2018-09-22T18:28:33.344Z,8.63
2018-09-22T18:31:00.534Z,13.80
2018-09-22T18:33:27.804Z,32.77
2018-09-22T18:35:55.044Z,20.33
2018-09-22T18:38:22.298Z,10.30
2018-09-22T18:40:49.551Z,12.53
2018-09-22T18:43:16.880Z,11.43
2018-09-22T18:45:44.216Z,10.80
2018-09-22T18:48:11.481Z,9.97
2018-09-22T18:50:38.800Z,204.30
2018-09-22T18:53:06.199Z,80.10
2018-09-22T18:55:34.490Z,33.07
2018-09-22T18:58:01.798Z,29.47
2018-09-22T19:00:29.095Z,36.97
2018-09-22T19:02:56.391Z,10.10
2018-09-22T19:05:23.705Z,12.00
2018-09-22T19:07:50.953Z,12.33
2018-09-22T19:10:18.169Z,6.53
2018-09-22T19:12:45.458Z,8.70
2018-09-22T19:15:24.125Z,58.60
2018-09-22T19:17:57.194Z,19.43
2018-09-22T19:20:35.130Z,31.83
2018-09-22T19:23:06.795Z,7.33
2018-09-22T19:25:36.345Z,7.50
2018-09-22T19:28:06.933Z,15.47
2018-09-22T19:30:42.649Z,10.33
2018-09-22T19:33:28.501Z,7.20
2018-09-22T19:36:02.957Z,6.17
2018-09-22T19:38:34.774Z,9.03
2018-09-22T19:41:06.702Z,8.90
2018-09-22T19:44:10.483Z,7.13
2018-09-22T19:46:58.085Z,8.17
2018-09-22T19:49:27.940Z,4.50
2018-09-22T19:51:59.816Z,9.10
2018-09-22T19:54:27.059Z,10.73
2018-09-22T19:56:54.260Z,15.57
2018-09-22T19:59:21.501Z,12.13
2018-09-22T20:01:48.847Z,12.03
2018-09-22T20:04:16.065Z,4.50
2018-09-22T20:06:43.283Z,8.90
2018-09-22T20:09:10.445Z,13.90
2018-09-22T20:11:37.663Z,9.17
2018-09-22T20:14:04.833Z,7.60
2018-09-22T20:16:32.036Z,8.83
2018-09-22T20:18:59.229Z,4.90
2018-09-22T20:21:26.439Z,3.23
2018-09-22T20:24:00.444Z,3.13
2018-09-22T20:26:27.732Z,4.53
2018-09-22T20:28:54.931Z,5.13
2018-09-22T20:31:22.168Z,6.50
2018-09-22T20:33:49.492Z,11.50
2018-09-22T20:36:16.768Z,6.37
2018-09-22T20:38:43.990Z,12.80
2018-09-22T20:41:11.228Z,5.50
2018-09-22T20:43:38.457Z,2.33
2018-09-22T20:46:05.708Z,5.80
2018-09-22T20:48:32.905Z,4.40
2018-09-22T20:51:00.168Z,11.40
2018-09-22T20:53:27.440Z,5.40
2018-09-22T20:55:54.671Z,3.17
2018-09-22T20:58:21.864Z,3.67
2018-09-22T21:00:49.103Z,71.77
2018-09-22T21:03:16.319Z,43.50
2018-09-22T21:05:43.484Z,10.20
2018-09-22T21:08:10.798Z,6.77
2018-09-22T21:10:38.095Z,9.27
2018-09-22T21:13:05.340Z,11.83
2018-09-22T21:15:32.529Z,6.90
2018-09-22T21:17:59.732Z,5.83
2018-09-22T21:20:26.952Z,5.40
2018-09-22T21:22:54.215Z,3.43
2018-09-22T21:25:21.370Z,5.03
2018-09-22T21:27:48.654Z,4.77
2018-09-22T21:30:15.870Z,3.93
2018-09-22T21:32:43.100Z,8.90
2018-09-22T21:35:10.349Z,4.00
2018-09-22T21:37:37.537Z,2.57
2018-09-22T21:40:04.874Z,6.63
2018-09-22T21:42:32.055Z,8.03
2018-09-22T21:44:59.242Z,6.60
2018-09-22T21:47:26.508Z,5.93
2018-09-22T21:49:53.688Z,18.30
2018-09-22T21:52:20.900Z,8.27
2018-09-22T21:54:48.204Z,3.60
2018-09-22T21:57:15.411Z,7.50
2018-09-22T21:59:42.594Z,6.43
2018-09-22T22:02:09.769Z,2.57
2018-09-22T22:04:36.975Z,2.50
2018-09-22T22:07:04.210Z,4.30
2018-09-22T22:09:31.358Z,2.50
2018-09-22T22:11:58.539Z,4.53
2018-09-22T22:14:25.710Z,3.70
2018-09-22T22:16:52.921Z,5.50
2018-09-22T22:19:20.113Z,5.57
2018-09-22T22:21:47.344Z,4.10
2018-09-22T22:24:14.524Z,5.93
2018-09-22T22:26:41.755Z,2.70
2018-09-22T22:29:09.025Z,4.80
2018-09-22T22:31:36.250Z,4.17
2018-09-22T22:34:03.481Z,3.40
2018-09-22T22:36:30.696Z,3.20
2018-09-22T22:38:57.839Z,2.80
2018-09-22T22:41:25.084Z,5.53
2018-09-22T22:43:52.274Z,2.10
2018-09-22T22:46:19.473Z,5.27
2018-09-22T22:48:46.601Z,6.07
2018-09-22T22:51:13.800Z,2.40
2018-09-22T22:53:40.988Z,6.57
2018-09-22T22:56:08.289Z,3.60
2018-09-22T22:58:35.488Z,5.00
2018-09-22T23:01:02.700Z,3.03
2018-09-22T23:03:29.900Z,14.20
2018-09-22T23:05:57.078Z,3.73
2018-09-22T23:08:24.289Z,3.63
2018-09-22T23:10:51.432Z,13.13
2018-09-22T23:13:18.616Z,4.30
2018-09-22T23:15:45.804Z,3.43
2018-09-22T23:18:13.013Z,6.20
2018-09-22T23:20:40.193Z,6.70
2018-09-22T23:23:07.409Z,3.10
2018-09-22T23:25:35.196Z,3.23
2018-09-22T23:28:02.580Z,6.63
2018-09-22T23:30:29.765Z,6.90
2018-09-22T23:32:56.936Z,3.30
2018-09-22T23:35:24.263Z,2.63
2018-09-22T23:37:51.509Z,5.50
2018-09-22T23:40:18.692Z,5.27
2018-09-22T23:42:45.860Z,11.33
2018-09-22T23:45:13.005Z,7.93
2018-09-22T23:47:40.191Z,4.60
2018-09-22T23:50:07.357Z,2.70
2018-09-22T23:52:34.576Z,4.10
2018-09-22T23:55:01.841Z,2.70
2018-09-22T23:57:28.988Z,4.00
2018-09-22T23:59:56.144Z,2.37
